createdAt,value
2022-11-05T00:01:21.121Z,100345.20
2022-11-05T00:04:08.880Z,100347.20
2022-11-05T00:06:57.161Z,100351.40
2022-11-05T00:09:32.815Z,100353.60
2022-11-05T00:12:30.459Z,100358.80
2022-11-05T00:15:17.798Z,100363.60
2022-11-05T00:17:46.591Z,100364.80
2022-11-05T00:20:15.375Z,100368.80
2022-11-05T00:23:02.832Z,100374.80
2022-11-05T00:25:31.589Z,100373.20
2022-11-05T00:28:03.528Z,100377.40
2022-11-05T00:30:32.242Z,100372.80
2022-11-05T00:33:05.365Z,100376.60
2022-11-05T00:35:33.813Z,100375.80
2022-11-05T00:38:02.498Z,100383.20
2022-11-05T00:40:31.083Z,100387.80
2022-11-05T00:43:18.613Z,100393.20
2022-11-05T00:45:47.198Z,100396.00
2022-11-05T00:48:34.418Z,100392.20
2022-11-05T00:51:03.104Z,100393.80
2022-11-05T00:53:32.206Z,100398.00
2022-11-05T00:56:01.406Z,100403.40
2022-11-05T00:58:29.883Z,100407.00
2022-11-05T01:01:01.002Z,100404.20
2022-11-05T01:03:34.203Z,100408.20
2022-11-05T01:06:13.513Z,100414.40
2022-11-05T01:08:45.271Z,100414.60
2022-11-05T01:11:37.455Z,100419.40
2022-11-05T01:14:13.058Z,100423.80
2022-11-05T01:16:42.510Z,100422.80
2022-11-05T01:19:12.319Z,100421.00
2022-11-05T01:21:40.901Z,100423.80
2022-11-05T01:24:11.120Z,100428.20
2022-11-05T01:26:39.816Z,100433.60
2022-11-05T01:29:11.120Z,100431.60
2022-11-05T01:31:39.643Z,100433.60
2022-11-05T01:34:08.228Z,100432.80
2022-11-05T01:36:36.812Z,100441.20
2022-11-05T01:39:05.396Z,100443.00
2022-11-05T01:41:34.083Z,100443.60
2022-11-05T01:44:03.591Z,100445.20
2022-11-05T01:46:38.692Z,100443.20
2022-11-05T01:49:20.837Z,100443.20
2022-11-05T01:51:51.505Z,100440.00
2022-11-05T01:54:27.315Z,100437.60
2022-11-05T01:57:04.157Z,100438.20
2022-11-05T01:59:40.535Z,100438.60
2022-11-05T02:02:09.684Z,100444.80
2022-11-05T02:05:03.640Z,100442.00
2022-11-05T02:07:33.923Z,100446.40
2022-11-05T02:10:15.019Z,100451.00
2022-11-05T02:12:48.437Z,100452.80
2022-11-05T02:15:43.353Z,100454.40
2022-11-05T02:18:41.416Z,100455.00
2022-11-05T02:21:31.914Z,100462.00
2022-11-05T02:24:41.153Z,100465.00
2022-11-05T02:27:48.554Z,100471.80
2022-11-05T02:30:52.570Z,100476.20
2022-11-05T02:33:57.203Z,100480.00
2022-11-05T02:36:52.912Z,100482.80
2022-11-05T02:40:01.544Z,100494.00
2022-11-05T02:42:47.459Z,100496.00
2022-11-05T02:45:37.514Z,100500.00
2022-11-05T02:48:50.745Z,100503.60
2022-11-05T02:51:40.834Z,100503.60
2022-11-05T02:54:29.491Z,100499.20
2022-11-05T02:56:59.507Z,100504.60
2022-11-05T02:59:27.993Z,100507.80
2022-11-05T03:01:58.598Z,100510.80
2022-11-05T03:04:27.820Z,100514.20
2022-11-05T03:07:34.191Z,100518.60
2022-11-05T03:10:56.947Z,100524.80
2022-11-05T03:13:51.440Z,100530.80
2022-11-05T03:16:32.924Z,100534.60
2022-11-05T03:19:07.042Z,100535.40
2022-11-05T03:21:58.001Z,100537.40
2022-11-05T03:24:36.125Z,100544.00
2022-11-05T03:27:10.519Z,100545.60
2022-11-05T03:29:44.745Z,100547.60
2022-11-05T03:32:17.018Z,100551.40
2022-11-05T03:34:57.222Z,100555.40
2022-11-05T03:37:29.162Z,100563.20
2022-11-05T03:40:01.924Z,100563.40
2022-11-05T03:42:35.894Z,100569.40
2022-11-05T03:45:16.032Z,100574.60
2022-11-05T03:47:48.312Z,100576.20
2022-11-05T03:50:41.290Z,100585.20
2022-11-05T03:53:23.771Z,100589.40
2022-11-05T03:56:02.208Z,100594.20
2022-11-05T03:58:31.896Z,100595.20
2022-11-05T04:01:03.816Z,100599.40
2022-11-05T04:03:36.847Z,100599.00
2022-11-05T04:06:26.529Z,100597.80
2022-11-05T04:09:13.750Z,100601.20
2022-11-05T04:12:00.906Z,100602.00
2022-11-05T04:14:31.089Z,100611.00
2022-11-05T04:17:11.757Z,100612.80
2022-11-05T04:20:03.689Z,100614.80
2022-11-05T04:22:54.392Z,100615.80
2022-11-05T04:25:23.388Z,100626.20
2022-11-05T04:27:51.971Z,100624.40
2022-11-05T04:30:20.995Z,100625.40
2022-11-05T04:33:11.361Z,100627.00
2022-11-05T04:35:49.666Z,100629.20
2022-11-05T04:38:20.537Z,100630.20
2022-11-05T04:40:49.300Z,100630.40
2022-11-05T04:43:19.974Z,100632.20
2022-11-05T04:45:48.627Z,100634.60
2022-11-05T04:48:17.212Z,100634.80
2022-11-05T04:50:45.788Z,100641.00
2022-11-05T04:53:14.501Z,100641.40
2022-11-05T04:55:43.367Z,100637.60
2022-11-05T04:58:12.052Z,100635.00
2022-11-05T05:00:41.030Z,100639.80
2022-11-05T05:03:10.303Z,100639.40
2022-11-05T05:05:39.046Z,100646.00
2022-11-05T05:08:07.526Z,100645.20
2022-11-05T05:10:36.104Z,100648.40
2022-11-05T05:13:04.687Z,100647.00
2022-11-05T05:15:33.374Z,100658.00
2022-11-05T05:18:01.957Z,100658.60
2022-11-05T05:20:50.204Z,100664.80
2022-11-05T05:23:19.093Z,100670.20
2022-11-05T05:25:47.576Z,100672.00
2022-11-05T05:28:16.173Z,100674.20
2022-11-05T05:30:44.853Z,100671.00
2022-11-05T05:33:14.381Z,100674.20
2022-11-05T05:35:43.045Z,100678.60
2022-11-05T05:38:11.626Z,100682.20
2022-11-05T05:40:40.214Z,100681.00
2022-11-05T05:43:08.931Z,100685.20
2022-11-05T05:45:37.788Z,100690.60
2022-11-05T05:48:06.638Z,100696.20
2022-11-05T05:50:35.490Z,100701.20
2022-11-05T05:53:10.091Z,100713.60
2022-11-05T05:55:38.994Z,100718.20
2022-11-05T05:58:07.785Z,100725.80
2022-11-05T06:00:36.875Z,100735.60
2022-11-05T06:03:06.552Z,100745.00
2022-11-05T06:05:35.199Z,100750.80
2022-11-05T06:08:03.881Z,100758.00
2022-11-05T06:10:32.774Z,100764.60
2022-11-05T06:13:01.432Z,100771.80
2022-11-05T06:15:35.489Z,100772.20
2022-11-05T06:18:04.747Z,100776.80
2022-11-05T06:20:33.227Z,100783.80
2022-11-05T06:23:02.631Z,100786.80
2022-11-05T06:25:31.214Z,100790.60
2022-11-05T06:28:00.313Z,100792.80
2022-11-05T06:30:28.999Z,100795.80
2022-11-05T06:33:02.497Z,100793.40
2022-11-05T06:35:31.389Z,100785.20
2022-11-05T06:38:02.633Z,100789.40
2022-11-05T06:40:31.221Z,100792.20
2022-11-05T06:42:59.803Z,100794.00
2022-11-05T06:45:28.388Z,100794.60
2022-11-05T06:47:58.743Z,100795.20
2022-11-05T06:50:28.798Z,100796.20
2022-11-05T06:53:03.943Z,100802.80
2022-11-05T06:55:33.070Z,100806.80
2022-11-05T06:58:01.769Z,100808.40
2022-11-05T07:00:30.834Z,100807.20
2022-11-05T07:03:12.187Z,100808.60
2022-11-05T07:05:48.214Z,100806.60
2022-11-05T07:08:16.779Z,100812.40
2022-11-05T07:10:45.360Z,100818.40
2022-11-05T07:13:14.248Z,100826.60
2022-11-05T07:15:43.452Z,100831.40
2022-11-05T07:18:12.037Z,100833.60
2022-11-05T07:20:40.723Z,100836.40
2022-11-05T07:23:14.870Z,100841.80
2022-11-05T07:25:45.137Z,100850.60
2022-11-05T07:28:14.776Z,100851.40
2022-11-05T07:30:43.459Z,100852.00
2022-11-05T07:33:12.627Z,100855.20
2022-11-05T07:35:41.548Z,100859.60
2022-11-05T07:38:11.068Z,100865.00
2022-11-05T07:40:39.569Z,100872.00
2022-11-05T07:43:08.342Z,100874.00
2022-11-05T07:45:37.320Z,100877.60
2022-11-05T07:48:06.718Z,100877.20
2022-11-05T07:50:37.974Z,100879.20
2022-11-05T07:53:13.869Z,100886.60
2022-11-05T07:55:44.179Z,100883.40
2022-11-05T07:58:13.656Z,100890.80
2022-11-05T08:00:42.818Z,100890.60
2022-11-05T08:03:17.369Z,100893.80
2022-11-05T08:05:48.431Z,100891.40
2022-11-05T08:08:19.381Z,100892.20
2022-11-05T08:10:48.356Z,100886.20
2022-11-05T08:13:17.556Z,100889.40
2022-11-05T08:15:46.036Z,100888.80
2022-11-05T08:18:17.944Z,100886.00
2022-11-05T08:20:48.089Z,100878.60
2022-11-05T08:23:16.611Z,100880.60
2022-11-05T08:25:45.290Z,100879.80
2022-11-05T08:28:14.384Z,100882.00
2022-11-05T08:30:43.174Z,100890.80
2022-11-05T08:33:13.573Z,100893.00
2022-11-05T08:35:42.909Z,100897.20
2022-11-05T08:38:14.480Z,100902.20
2022-11-05T08:40:45.360Z,100902.80
2022-11-05T08:43:15.005Z,100905.20
2022-11-05T08:45:43.897Z,100906.80
2022-11-05T08:48:15.808Z,100908.60
2022-11-05T08:50:47.030Z,100908.80
2022-11-05T08:53:17.708Z,100910.40
2022-11-05T08:55:50.316Z,100916.00
2022-11-05T08:58:20.437Z,100913.20
2022-11-05T09:00:50.551Z,100920.60
2022-11-05T09:03:19.552Z,100924.20
2022-11-05T09:05:48.444Z,100922.00
2022-11-05T09:08:19.488Z,100917.80
2022-11-05T09:10:50.101Z,100924.60
2022-11-05T09:13:20.136Z,100922.40
2022-11-05T09:15:50.700Z,100924.80
2022-11-05T09:18:20.990Z,100926.60
2022-11-05T09:20:49.781Z,100926.20
2022-11-05T09:23:18.882Z,100926.40
2022-11-05T09:25:47.564Z,100922.40
2022-11-05T09:28:20.517Z,100925.60
2022-11-05T09:30:52.380Z,100935.80
2022-11-05T09:33:24.585Z,100931.00
2022-11-05T09:35:53.988Z,100935.60
2022-11-05T09:38:22.470Z,100943.00
2022-11-05T09:41:03.466Z,100949.60
2022-11-05T09:43:39.295Z,100950.60
2022-11-05T09:46:26.946Z,100950.60
2022-11-05T09:49:04.531Z,100952.80
2022-11-05T09:51:34.684Z,100956.20
2022-11-05T09:54:05.786Z,100959.60
2022-11-05T09:56:40.591Z,100961.00
2022-11-05T09:59:31.014Z,100966.00
2022-11-05T10:02:22.703Z,100968.00
2022-11-05T10:05:02.509Z,100970.00
2022-11-05T10:07:47.871Z,100973.20
2022-11-05T10:10:42.071Z,100973.40
2022-11-05T10:13:33.599Z,100973.80
2022-11-05T10:16:29.296Z,100975.60
2022-11-05T10:19:00.132Z,100976.80
2022-11-05T10:21:59.427Z,100981.80
2022-11-05T10:24:21.122Z,100978.60
2022-11-05T10:26:54.865Z,100986.00
2022-11-05T10:29:35.482Z,100986.60
2022-11-05T10:32:07.504Z,100990.00
2022-11-05T10:34:39.461Z,100986.40
2022-11-05T10:37:09.099Z,100990.80
2022-11-05T10:39:37.859Z,100993.40
2022-11-05T10:42:21.393Z,100998.20
2022-11-05T10:45:02.470Z,101000.20
2022-11-05T10:48:43.952Z,101008.80
2022-11-05T10:51:13.473Z,101010.20
2022-11-05T10:54:00.334Z,101013.80
2022-11-05T10:56:37.645Z,101017.60
2022-11-05T10:59:29.919Z,101028.20
2022-11-05T11:02:21.239Z,101029.80
2022-11-05T11:04:54.422Z,101029.20
2022-11-05T11:07:26.134Z,101037.20
2022-11-05T11:09:54.764Z,101037.20
2022-11-05T11:12:40.917Z,101033.20
2022-11-05T11:15:24.803Z,101033.60
2022-11-05T11:17:55.540Z,101034.20
2022-11-05T11:20:31.612Z,101040.20
2022-11-05T11:23:16.015Z,101038.00
2022-11-05T11:26:01.338Z,101045.80
2022-11-05T11:28:44.050Z,101050.20
2022-11-05T11:31:25.178Z,101048.40
2022-11-05T11:34:10.611Z,101047.80
2022-11-05T11:36:47.183Z,101047.60
2022-11-05T11:39:24.571Z,101051.20
2022-11-05T11:41:57.419Z,101053.00
2022-11-05T11:44:31.283Z,101056.40
2022-11-05T11:47:10.085Z,101056.00
2022-11-05T11:49:44.710Z,101051.40
2022-11-05T11:52:24.361Z,101055.60
2022-11-05T11:55:06.974Z,101050.80
2022-11-05T11:58:07.199Z,101050.60
2022-11-05T12:00:45.568Z,101052.20
2022-11-05T12:03:51.167Z,101055.20
2022-11-05T12:06:34.493Z,101058.40
2022-11-05T12:09:11.987Z,101061.40
2022-11-05T12:11:53.171Z,101057.60
2022-11-05T12:15:04.277Z,101057.00
2022-11-05T12:17:52.602Z,101054.00
2022-11-05T12:20:58.595Z,101054.80
2022-11-05T12:24:04.926Z,101055.80
2022-11-05T12:27:17.441Z,101062.40
2022-11-05T12:30:19.822Z,101067.80
2022-11-05T12:33:16.358Z,101069.00
2022-11-05T12:36:14.944Z,101076.60
2022-11-05T12:38:52.641Z,101077.60
2022-11-05T12:41:53.072Z,101075.00
2022-11-05T12:44:48.896Z,101078.20
2022-11-05T12:47:40.213Z,101085.80
2022-11-05T12:50:21.500Z,101087.20
2022-11-05T12:53:24.281Z,101089.80
2022-11-05T12:55:53.585Z,101096.20
2022-11-05T12:58:31.485Z,101099.80
2022-11-05T13:01:24.975Z,101102.20
2022-11-05T13:04:09.012Z,101109.80
2022-11-05T13:06:42.044Z,101106.40
2022-11-05T13:09:41.907Z,101106.00
2022-11-05T13:12:17.211Z,101105.20
2022-11-05T13:14:55.335Z,101100.80
2022-11-05T13:17:29.579Z,101108.40
2022-11-05T13:19:57.954Z,101109.80
2022-11-05T13:22:35.344Z,101114.00
2022-11-05T13:25:25.593Z,101116.40
2022-11-05T13:27:58.425Z,101119.40
2022-11-05T13:30:41.956Z,101119.60
2022-11-05T13:33:32.252Z,101120.80
2022-11-05T13:36:28.485Z,101123.20
2022-11-05T13:39:20.928Z,101130.20
2022-11-05T13:42:24.942Z,101130.60
2022-11-05T13:45:18.514Z,101132.20
2022-11-05T13:48:05.734Z,101140.40
2022-11-05T13:51:07.495Z,101134.00
2022-11-05T13:54:04.343Z,101131.40
2022-11-05T13:57:16.654Z,101139.00
2022-11-05T14:00:04.060Z,101138.40
2022-11-05T14:03:15.264Z,101135.00
2022-11-05T14:05:49.768Z,101141.00
2022-11-05T14:08:23.867Z,101142.40
2022-11-05T14:11:19.112Z,101142.20
2022-11-05T14:13:55.580Z,101138.80
2022-11-05T14:16:52.323Z,101147.20
2022-11-05T14:19:20.811Z,101145.40
2022-11-05T14:21:58.709Z,101144.20
2022-11-05T14:24:44.604Z,101145.00
2022-11-05T14:27:33.467Z,101145.00
2022-11-05T14:30:22.727Z,101152.20
2022-11-05T14:32:53.365Z,101151.00
2022-11-05T14:35:38.946Z,101156.60
2022-11-05T14:38:24.014Z,101162.20
2022-11-05T14:41:01.678Z,101160.20
2022-11-05T14:43:34.681Z,101165.20
2022-11-05T14:46:06.421Z,101164.20
2022-11-05T14:48:54.153Z,101174.40
2022-11-05T14:51:46.086Z,101176.20
2022-11-05T14:54:37.479Z,101171.40
2022-11-05T14:57:06.135Z,101178.60
2022-11-05T14:59:58.060Z,101179.20
2022-11-05T15:02:38.536Z,101183.60
2022-11-05T15:05:35.172Z,101182.80
2022-11-05T15:08:36.621Z,101190.20
2022-11-05T15:11:36.028Z,101193.80
2022-11-05T15:14:08.812Z,101197.80
2022-11-05T15:16:49.731Z,101200.40
2022-11-05T15:19:37.373Z,101201.60
2022-11-05T15:22:17.022Z,101205.80
2022-11-05T15:24:45.543Z,101208.00
2022-11-05T15:27:42.411Z,101206.60
2022-11-05T15:30:23.199Z,101208.60
2022-11-05T15:32:52.776Z,101210.80
2022-11-05T15:35:30.177Z,101215.40
2022-11-05T15:38:02.019Z,101208.80
2022-11-05T15:40:34.257Z,101218.20
2022-11-05T15:43:29.438Z,101213.40
2022-11-05T15:46:14.676Z,101219.40
2022-11-05T15:48:50.220Z,101222.00
2022-11-05T15:51:21.340Z,101222.20
2022-11-05T15:54:16.106Z,101228.60
2022-11-05T15:56:53.354Z,101230.80
2022-11-05T15:59:25.007Z,101232.40
2022-11-05T16:02:33.319Z,101235.40
2022-11-05T16:05:09.693Z,101233.40
2022-11-05T16:07:44.099Z,101245.00
2022-11-05T16:10:28.673Z,101246.40
2022-11-05T16:12:57.567Z,101246.20
2022-11-05T16:15:32.599Z,101255.60
2022-11-05T16:18:01.498Z,101254.80
2022-11-05T16:20:34.372Z,101254.20
2022-11-05T16:23:23.134Z,101259.80
2022-11-05T16:25:52.383Z,101259.60
2022-11-05T16:28:30.341Z,101259.20
2022-11-05T16:31:03.902Z,101265.80
2022-11-05T16:33:51.019Z,101263.20
2022-11-05T16:36:21.165Z,101274.00
2022-11-05T16:38:49.813Z,101275.20
2022-11-05T16:41:21.310Z,101273.40
2022-11-05T16:44:00.410Z,101276.20
2022-11-05T16:46:30.692Z,101277.40
2022-11-05T16:48:59.155Z,101282.00
2022-11-05T16:51:28.700Z,101282.20
2022-11-05T16:53:57.383Z,101286.40
2022-11-05T16:56:26.070Z,101289.60
2022-11-05T16:58:54.952Z,101290.60
2022-11-05T17:01:24.793Z,101291.80
2022-11-05T17:03:54.042Z,101299.00
2022-11-05T17:06:23.609Z,101301.60
2022-11-05T17:08:52.130Z,101305.40
2022-11-05T17:11:21.841Z,101308.40
2022-11-05T17:13:51.357Z,101311.20
2022-11-05T17:16:19.940Z,101321.60
2022-11-05T17:18:48.727Z,101326.80
2022-11-05T17:21:17.447Z,101325.00
2022-11-05T17:23:46.197Z,101332.00
2022-11-05T17:26:15.189Z,101333.00
2022-11-05T17:28:43.671Z,101344.80
2022-11-05T17:31:14.448Z,101344.80
2022-11-05T17:33:43.304Z,101352.00
2022-11-05T17:36:16.373Z,101353.60
2022-11-05T17:38:44.977Z,101347.20
2022-11-05T17:41:17.512Z,101345.20
2022-11-05T17:43:48.076Z,101349.40
2022-11-05T17:46:17.903Z,101352.20
2022-11-05T17:48:47.718Z,101358.80
2022-11-05T17:51:19.226Z,101357.80
2022-11-05T17:53:52.117Z,101366.40
2022-11-05T17:56:32.454Z,101369.20
2022-11-05T17:59:04.171Z,101371.00
2022-11-05T18:01:36.221Z,101374.60
2022-11-05T18:04:09.026Z,101383.00
2022-11-05T18:06:40.186Z,101382.20
2022-11-05T18:09:11.102Z,101385.60
2022-11-05T18:11:41.355Z,101385.80
2022-11-05T18:14:11.340Z,101386.00
2022-11-05T18:16:39.775Z,101392.40
2022-11-05T18:19:10.759Z,101392.20
2022-11-05T18:21:39.346Z,101391.00
2022-11-05T18:24:08.880Z,101395.00
2022-11-05T18:26:38.463Z,101399.60
2022-11-05T18:29:07.247Z,101401.60
2022-11-05T18:31:35.933Z,101404.60
2022-11-05T18:34:05.350Z,101402.40
2022-11-05T18:36:34.713Z,101403.80
2022-11-05T18:39:06.139Z,101401.60
2022-11-05T18:41:35.188Z,101397.80
2022-11-05T18:44:05.848Z,101402.20
2022-11-05T18:46:56.952Z,101401.20
2022-11-05T18:49:24.804Z,101405.00
2022-11-05T18:51:54.717Z,101404.20
2022-11-05T18:54:23.401Z,101402.20
2022-11-05T18:56:52.090Z,101402.80
2022-11-05T18:59:36.772Z,101404.40
2022-11-05T19:02:11.370Z,101403.00
2022-11-05T19:04:50.593Z,101410.40
2022-11-05T19:07:29.849Z,101413.00
2022-11-05T19:09:59.050Z,101416.40
2022-11-05T19:12:27.735Z,101418.40
2022-11-05T19:15:01.950Z,101416.80
2022-11-05T19:17:33.737Z,101410.00
2022-11-05T19:20:03.013Z,101410.20
2022-11-05T19:22:32.443Z,101410.80
2022-11-05T19:25:01.613Z,101411.00
2022-11-05T19:27:30.706Z,101413.40
2022-11-05T19:29:59.394Z,101415.20
2022-11-05T19:32:28.695Z,101419.00
2022-11-05T19:34:57.892Z,101415.20
2022-11-05T19:37:26.990Z,101416.40
2022-11-05T19:39:55.572Z,101413.40
2022-11-05T19:42:24.567Z,101415.80
2022-11-05T19:44:53.868Z,101422.20
2022-11-05T19:47:22.973Z,101421.40
2022-11-05T19:49:51.549Z,101420.00
2022-11-05T19:52:20.443Z,101421.80
2022-11-05T19:54:49.345Z,101427.80
2022-11-05T19:57:18.839Z,101429.60
2022-11-05T19:59:47.935Z,101438.00
2022-11-05T20:02:17.234Z,101433.00
2022-11-05T20:04:46.436Z,101440.00
2022-11-05T20:07:15.532Z,101444.00
2022-11-05T20:09:44.120Z,101443.80
2022-11-05T20:12:13.007Z,101451.40
2022-11-05T20:14:42.413Z,101449.00
2022-11-05T20:17:11.919Z,101452.20
2022-11-05T20:19:40.606Z,101450.60
2022-11-05T20:22:09.297Z,101450.60
2022-11-05T20:24:39.206Z,101453.80
2022-11-05T20:27:08.590Z,101451.80
2022-11-05T20:29:37.809Z,101452.40
2022-11-05T20:32:07.213Z,101459.20
2022-11-05T20:34:36.107Z,101461.40
2022-11-05T20:37:04.893Z,101457.20
2022-11-05T20:39:34.207Z,101457.60
2022-11-05T20:42:03.202Z,101464.00
2022-11-05T20:44:31.875Z,101465.00
2022-11-05T20:47:00.561Z,101465.20
2022-11-05T20:49:29.666Z,101468.80
2022-11-05T20:51:58.960Z,101465.80
2022-11-05T20:54:27.603Z,101467.80
2022-11-05T20:56:56.436Z,101473.80
2022-11-05T20:59:25.670Z,101478.40
2022-11-05T21:01:54.427Z,101482.00
2022-11-05T21:04:23.521Z,101478.80
2022-11-05T21:06:53.640Z,101485.00
2022-11-05T21:09:22.241Z,101485.00
2022-11-05T21:12:09.547Z,101489.00
2022-11-05T21:14:43.461Z,101485.60
2022-11-05T21:17:13.614Z,101491.00
2022-11-05T21:19:42.162Z,101490.40
2022-11-05T21:22:15.767Z,101489.40
2022-11-05T21:24:44.456Z,101489.60
2022-11-05T21:27:13.242Z,101493.60
2022-11-05T21:29:42.033Z,101493.80
2022-11-05T21:32:10.727Z,101496.80
2022-11-05T21:34:39.711Z,101498.60
2022-11-05T21:37:08.295Z,101496.00
2022-11-05T21:39:36.883Z,101492.00
2022-11-05T21:42:05.568Z,101493.20
2022-11-05T21:44:34.256Z,101489.20
2022-11-05T21:47:04.784Z,101494.40
2022-11-05T21:49:35.017Z,101497.40
2022-11-05T21:52:22.741Z,101493.20
2022-11-05T21:55:10.165Z,101493.00
2022-11-05T21:57:58.411Z,101493.40
2022-11-05T22:00:27.200Z,101498.00
2022-11-05T22:02:56.100Z,101500.80
2022-11-05T22:05:24.779Z,101503.60
2022-11-05T22:07:53.567Z,101504.60
2022-11-05T22:10:22.262Z,101497.40
2022-11-05T22:12:50.940Z,101499.20
2022-11-05T22:15:19.934Z,101500.80
2022-11-05T22:17:51.594Z,101499.60
2022-11-05T22:20:20.383Z,101490.40
2022-11-05T22:22:48.965Z,101485.00
2022-11-05T22:25:18.266Z,101481.20
2022-11-05T22:27:46.985Z,101486.20
2022-11-05T22:30:16.459Z,101492.00
2022-11-05T22:32:46.405Z,101501.20
2022-11-05T22:35:14.858Z,101505.60
2022-11-05T22:37:43.445Z,101506.60
2022-11-05T22:40:12.333Z,101499.40
2022-11-05T22:42:40.886Z,101501.40
2022-11-05T22:45:10.483Z,101505.40
2022-11-05T22:47:42.285Z,101505.20
2022-11-05T22:50:11.096Z,101501.80
2022-11-05T22:52:39.760Z,101503.80
2022-11-05T22:55:09.223Z,101501.20
2022-11-05T22:57:37.992Z,101496.80
2022-11-05T23:00:17.422Z,101496.00
2022-11-05T23:02:47.543Z,101504.00
2022-11-05T23:05:16.506Z,101509.00
2022-11-05T23:08:03.992Z,101510.40
2022-11-05T23:10:51.461Z,101507.40
2022-11-05T23:13:20.047Z,101507.60
2022-11-05T23:16:08.188Z,101507.00
2022-11-05T23:18:56.024Z,101508.20
2022-11-05T23:21:43.656Z,101502.80
2022-11-05T23:24:13.683Z,101499.60
2022-11-05T23:26:51.562Z,101500.60
2022-11-05T23:29:24.638Z,101500.80
2022-11-05T23:32:12.707Z,101495.80
2022-11-05T23:34:41.292Z,101493.00
2022-11-05T23:37:29.434Z,101497.60
2022-11-05T23:39:58.434Z,101496.80
2022-11-05T23:42:46.477Z,101490.20
2022-11-05T23:45:34.141Z,101495.40
2022-11-05T23:48:18.172Z,101494.20
2022-11-05T23:51:05.680Z,101506.60
2022-11-05T23:53:37.501Z,101505.00
2022-11-05T23:56:12.982Z,101504.40
2022-11-05T23:58:42.631Z,101511.20
